Peach Orchard, AR (72453)

9:11 AM CDT on July 27, 2016 (GMT -0500)
New Friendship | | Change Station

Elev 266 ft 36.17 °N, 90.41 °W | Updated 1 minute ago

Rain
Rain
79.7 °F
Feels Like 86 °F
N
2.2
Wind Variable Wind from SE
Gusts 3.1 mph

Today
High -- | Low -- °F
--% Chance of Precip.
Yesterday
High -- | Low -- °F
Precip. -- in
Pressure 29.96 in
Visibility 10.0 miles
Clouds Clear
Heat Index 86 °F
Dew Point 80 °F
Humidity 99%
Rainfall 0.00 in
Snow Depth Not available.
6:05 AM 8:11 PM
Last Quarter, 43% visible
METAR KARG 271355Z AUTO 05006KT 10SM CLR 27/23 A2996 RMK AO1
Pressure 29.96 in
Visibility 10.0 miles
Clouds Clear
Heat Index 86 °F
Dew Point 80 °F
Humidity 99%
Rainfall 0.00 in
Snow Depth Not available.
6:05 AM 8:11 PM
Last Quarter, 43% visible
METAR KARG 271355Z AUTO 05006KT 10SM CLR 27/23 A2996 RMK AO1

10-Day Weather Forecast

Almanac

Astronomy

Jul. 27, 2016 Rise Set
Actual Time
Civil Twilight
Nautical Twilight
Astronomical Twilight
Moon
Length of Visible Light
Length of Day
Tomorrow will be .
, % of the Moon is Illuminated

Today's Extremes

State Highs State Lows

Community

WunderPhotos

Upload Photos

1,927,846 photos uploaded!

WunderBlog® & News

Nearby

Air Quality

  Air Quality AQ Index Pollutant
Not available.

Snow Depth

Station Depth Elevation

Earthquake Activity

City Distance Mag. Time & Date
Minimum magnitude displayed is 2.5.

Coastal Water Temperatures

Place Temperature

Stations

Nearby Weather Stations

Station Location Temp. Windchill Dew Point Humidity Wind Precip. Elev Updated Type
                   

Watches & Warnings

There are currently no watches in effect.